createdAt,value
2023-03-25T00:01:41.989Z,14.90
2023-03-25T00:04:10.316Z,14.00
2023-03-25T00:06:39.409Z,17.20
2023-03-25T00:09:08.705Z,14.60
2023-03-25T00:11:37.901Z,17.50
2023-03-25T00:14:06.593Z,17.30
2023-03-25T00:16:41.796Z,16.60
2023-03-25T00:19:10.323Z,17.80
2023-03-25T00:21:40.041Z,19.30
2023-03-25T00:24:08.306Z,23.50
2023-03-25T00:26:42.672Z,16.00
2023-03-25T00:29:10.804Z,14.90
2023-03-25T00:31:40.640Z,14.60
2023-03-25T00:34:09.204Z,16.60
2023-03-25T00:36:38.807Z,14.90
2023-03-25T00:39:08.572Z,15.20
2023-03-25T00:41:37.403Z,14.10
2023-03-25T00:44:06.212Z,17.10
2023-03-25T00:46:34.790Z,15.60
2023-03-25T00:49:04.712Z,18.90
2023-03-25T00:51:36.463Z,17.30
2023-03-25T00:54:23.852Z,18.10
2023-03-25T00:56:53.650Z,15.70
2023-03-25T00:59:22.220Z,14.10
2023-03-25T01:01:53.408Z,17.10
2023-03-25T01:04:22.325Z,20.20
2023-03-25T01:06:53.774Z,19.30
2023-03-25T01:09:22.464Z,15.80
2023-03-25T01:11:50.944Z,15.50
2023-03-25T01:14:21.137Z,15.30
2023-03-25T01:16:50.489Z,14.00
2023-03-25T01:19:18.944Z,19.20
2023-03-25T01:21:49.582Z,15.50
2023-03-25T01:24:18.168Z,19.40
2023-03-25T01:26:46.291Z,18.00
2023-03-25T01:29:17.376Z,16.40
2023-03-25T01:31:45.649Z,12.50
2023-03-25T01:34:14.452Z,17.40
2023-03-25T01:36:46.918Z,18.30
2023-03-25T01:39:19.212Z,18.20
2023-03-25T01:41:50.632Z,16.50
2023-03-25T01:44:19.574Z,15.50
2023-03-25T01:46:49.658Z,18.50
2023-03-25T01:49:44.646Z,14.80
2023-03-25T01:52:16.516Z,12.50
2023-03-25T01:54:45.017Z,19.80
2023-03-25T01:57:14.009Z,12.50
2023-03-25T01:59:42.568Z,15.00
2023-03-25T02:02:17.809Z,16.00
2023-03-25T02:04:59.173Z,17.20
2023-03-25T02:07:31.209Z,14.10
2023-03-25T02:10:02.361Z,15.40
2023-03-25T02:12:31.309Z,13.50
2023-03-25T02:15:03.309Z,12.00
2023-03-25T02:18:00.961Z,14.90
2023-03-25T02:20:45.836Z,15.40
2023-03-25T02:23:28.614Z,16.90
2023-03-25T02:26:33.173Z,15.90
2023-03-25T02:29:15.345Z,16.40
2023-03-25T02:32:05.849Z,16.30
2023-03-25T02:35:00.217Z,16.70
2023-03-25T02:37:53.605Z,13.10
2023-03-25T02:40:48.953Z,17.60
2023-03-25T02:43:30.690Z,14.50
2023-03-25T02:46:01.553Z,15.70
2023-03-25T02:48:39.178Z,16.90
2023-03-25T02:51:17.806Z,14.10
2023-03-25T02:53:46.795Z,14.50
2023-03-25T02:56:17.066Z,15.00
2023-03-25T02:58:45.605Z,12.80
2023-03-25T03:01:15.259Z,14.20
2023-03-25T03:03:44.947Z,15.70
2023-03-25T03:06:16.727Z,16.50
2023-03-25T03:08:51.842Z,14.20
2023-03-25T03:11:24.912Z,14.10
2023-03-25T03:14:26.005Z,20.70
2023-03-25T03:17:08.940Z,15.90
2023-03-25T03:19:39.210Z,15.80
2023-03-25T03:22:39.754Z,15.30
2023-03-25T03:25:11.308Z,17.80
2023-03-25T03:27:53.172Z,15.60
2023-03-25T03:30:39.396Z,14.60
2023-03-25T03:33:22.028Z,15.90
2023-03-25T03:35:57.617Z,19.20
2023-03-25T03:38:27.370Z,14.90
2023-03-25T03:40:57.393Z,16.30
2023-03-25T03:46:10.799Z,17.90
2023-03-25T03:48:44.978Z,14.80
2023-03-25T03:51:19.703Z,16.30
2023-03-25T03:54:13.253Z,18.60
2023-03-25T03:56:46.787Z,15.20
2023-03-25T03:59:53.847Z,15.00
2023-03-25T04:02:32.718Z,14.80
2023-03-25T04:05:01.020Z,15.60
2023-03-25T04:07:40.540Z,18.50
2023-03-25T04:10:16.484Z,17.80
2023-03-25T04:12:51.395Z,14.20
2023-03-25T04:15:23.160Z,18.50
2023-03-25T04:17:53.292Z,16.80
2023-03-25T04:20:24.126Z,24.40
2023-03-25T04:22:53.149Z,13.40
2023-03-25T04:25:21.853Z,17.20
2023-03-25T04:27:50.269Z,16.60
2023-03-25T04:30:19.388Z,18.60
2023-03-25T04:32:48.093Z,18.90
2023-03-25T04:35:19.497Z,22.60
2023-03-25T04:37:53.920Z,19.00
2023-03-25T04:40:22.098Z,17.90
2023-03-25T04:42:51.335Z,16.80
2023-03-25T04:45:19.506Z,22.30
2023-03-25T04:47:49.785Z,20.20
2023-03-25T04:50:28.686Z,17.50
2023-03-25T04:53:03.425Z,18.50
2023-03-25T04:55:34.833Z,22.50
2023-03-25T04:58:03.284Z,19.70
2023-03-25T05:00:33.934Z,17.00
2023-03-25T05:03:02.941Z,18.60
2023-03-25T05:05:31.710Z,20.20
2023-03-25T05:08:01.772Z,17.90
2023-03-25T05:10:30.736Z,18.60
2023-03-25T05:13:03.918Z,25.60
2023-03-25T05:15:39.304Z,16.60
2023-03-25T05:18:14.911Z,19.70
2023-03-25T05:20:51.175Z,22.30
2023-03-25T05:23:23.758Z,19.60
2023-03-25T05:25:52.221Z,21.40
2023-03-25T05:28:20.948Z,24.80
2023-03-25T05:30:51.893Z,23.30
2023-03-25T05:33:22.374Z,25.10
2023-03-25T05:35:50.910Z,24.20
2023-03-25T05:38:19.457Z,28.50
2023-03-25T05:40:48.791Z,31.40
2023-03-25T05:43:23.294Z,25.30
2023-03-25T05:48:22.715Z,20.50
2023-03-25T05:50:50.990Z,19.10
2023-03-25T05:53:20.912Z,15.80
2023-03-25T05:55:54.241Z,17.80
2023-03-25T05:58:25.274Z,19.90
2023-03-25T06:00:55.360Z,17.70
2023-03-25T06:03:26.413Z,18.30
2023-03-25T06:05:55.502Z,16.10
2023-03-25T06:08:26.535Z,18.90
2023-03-25T06:11:01.067Z,16.00
2023-03-25T06:13:34.177Z,18.60
2023-03-25T06:16:03.626Z,22.20
2023-03-25T06:18:33.175Z,16.40
2023-03-25T06:21:03.912Z,17.40
2023-03-25T06:23:36.801Z,15.40
2023-03-25T06:26:05.529Z,20.30
2023-03-25T06:28:35.015Z,17.60
2023-03-25T06:31:26.865Z,21.20
2023-03-25T06:33:56.392Z,19.60
2023-03-25T06:36:26.228Z,20.90
2023-03-25T06:38:54.937Z,17.90
2023-03-25T06:41:36.103Z,18.40
2023-03-25T06:44:16.992Z,14.70
2023-03-25T06:47:12.296Z,17.90
2023-03-25T06:49:50.934Z,18.10
2023-03-25T06:52:19.400Z,17.50
2023-03-25T06:54:49.228Z,16.00
2023-03-25T06:57:17.794Z,33.80
2023-03-25T06:59:47.659Z,37.30
2023-03-25T07:02:16.226Z,25.80
2023-03-25T07:04:44.541Z,20.60
2023-03-25T07:07:13.230Z,20.00
2023-03-25T07:09:41.551Z,16.30
2023-03-25T07:12:10.228Z,14.40
2023-03-25T07:14:38.783Z,18.50
2023-03-25T07:17:07.204Z,21.20
2023-03-25T07:19:37.180Z,22.30
2023-03-25T07:22:08.665Z,24.40
2023-03-25T07:24:39.605Z,22.20
2023-03-25T07:27:07.965Z,26.60
2023-03-25T07:29:37.198Z,17.90
2023-03-25T07:32:06.418Z,23.40
2023-03-25T07:34:34.904Z,17.80
2023-03-25T07:37:04.503Z,19.70
2023-03-25T07:39:32.583Z,15.80
2023-03-25T07:42:02.570Z,16.90
2023-03-25T07:44:51.023Z,22.30
2023-03-25T07:47:21.960Z,26.00
2023-03-25T07:49:50.284Z,22.90
2023-03-25T07:52:18.824Z,30.70
2023-03-25T07:54:47.062Z,25.70
2023-03-25T07:57:15.687Z,22.00
2023-03-25T07:59:47.960Z,21.60
2023-03-25T08:02:16.355Z,16.70
2023-03-25T08:04:44.924Z,20.00
2023-03-25T08:07:13.411Z,18.60
2023-03-25T08:09:43.026Z,16.40
2023-03-25T08:12:11.249Z,17.80
2023-03-25T08:14:43.280Z,20.10
2023-03-25T08:17:11.639Z,19.80
2023-03-25T08:19:42.440Z,21.80
2023-03-25T08:22:11.366Z,18.00
2023-03-25T08:24:39.847Z,17.10
2023-03-25T08:27:14.087Z,16.60
2023-03-25T08:29:47.180Z,18.90
2023-03-25T08:32:15.577Z,17.10
2023-03-25T08:34:44.001Z,24.00
2023-03-25T08:37:14.344Z,33.80
2023-03-25T08:39:45.512Z,33.10
2023-03-25T08:42:14.775Z,25.60
2023-03-25T08:44:43.168Z,25.20
2023-03-25T08:47:11.398Z,19.60
2023-03-25T08:49:41.782Z,19.10
2023-03-25T08:52:11.432Z,23.00
2023-03-25T08:54:40.794Z,23.20
2023-03-25T08:57:09.635Z,18.90
2023-03-25T08:59:38.287Z,22.30
2023-03-25T09:02:06.683Z,26.90
2023-03-25T09:04:41.175Z,26.80
2023-03-25T09:07:12.597Z,23.70
2023-03-25T09:09:41.560Z,23.90
2023-03-25T09:12:12.761Z,22.10
2023-03-25T09:14:41.789Z,20.30
2023-03-25T09:17:11.098Z,19.50
2023-03-25T09:19:41.294Z,17.10
2023-03-25T09:22:09.859Z,15.50
2023-03-25T09:24:39.180Z,14.30
2023-03-25T09:27:07.888Z,16.10
2023-03-25T09:29:36.691Z,17.50
2023-03-25T09:32:18.860Z,19.70
2023-03-25T09:34:48.720Z,19.80
2023-03-25T09:37:17.967Z,21.80
2023-03-25T09:39:47.473Z,18.90
2023-03-25T09:42:31.246Z,19.40
2023-03-25T09:45:29.756Z,18.30
2023-03-25T09:48:03.548Z,18.80
2023-03-25T09:50:33.119Z,18.20
2023-03-25T09:53:11.204Z,19.20
2023-03-25T09:55:41.888Z,21.00
2023-03-25T09:58:28.861Z,17.50
2023-03-25T10:01:01.393Z,18.50
2023-03-25T10:03:58.958Z,18.30
2023-03-25T10:06:27.592Z,24.90
2023-03-25T10:09:02.040Z,25.50
2023-03-25T10:11:37.481Z,17.30
2023-03-25T10:14:40.488Z,21.80
2023-03-25T10:17:36.287Z,18.40
2023-03-25T10:20:40.992Z,17.90
2023-03-25T10:23:18.324Z,20.60
2023-03-25T10:25:48.642Z,22.60
2023-03-25T10:28:20.859Z,23.30
2023-03-25T10:30:51.247Z,20.30
2023-03-25T10:33:27.808Z,24.70
2023-03-25T10:35:59.845Z,18.40
2023-03-25T10:38:30.366Z,19.30
2023-03-25T10:41:10.979Z,21.40
2023-03-25T10:43:41.788Z,18.60
2023-03-25T10:47:01.216Z,20.30
2023-03-25T10:49:30.919Z,21.00
2023-03-25T10:51:59.733Z,20.70
2023-03-25T10:54:32.000Z,17.40
2023-03-25T10:57:04.067Z,19.50
2023-03-25T10:59:41.543Z,20.50
2023-03-25T11:02:25.473Z,18.80
2023-03-25T11:05:03.170Z,16.20
2023-03-25T11:07:34.931Z,17.70
2023-03-25T11:10:11.882Z,21.80
2023-03-25T11:12:48.541Z,21.60
2023-03-25T11:15:22.725Z,18.20
2023-03-25T11:18:19.896Z,16.90
2023-03-25T11:20:50.262Z,18.80
2023-03-25T11:23:37.614Z,22.40
2023-03-25T11:26:08.851Z,20.10
2023-03-25T11:28:40.373Z,22.60
2023-03-25T11:31:14.649Z,20.10
2023-03-25T11:33:45.399Z,18.70
2023-03-25T11:36:17.913Z,21.60
2023-03-25T11:38:47.632Z,18.90
2023-03-25T11:41:15.830Z,20.10
2023-03-25T11:43:48.207Z,18.80
2023-03-25T11:46:18.381Z,17.80
2023-03-25T11:48:47.008Z,19.60
2023-03-25T11:51:19.712Z,20.50
2023-03-25T11:53:57.809Z,20.00
2023-03-25T11:56:31.611Z,19.80
2023-03-25T11:59:01.472Z,21.80
2023-03-25T12:01:51.153Z,20.80
2023-03-25T12:04:21.321Z,22.60
2023-03-25T12:07:09.491Z,21.90
2023-03-25T12:17:40.543Z,22.10
2023-03-25T12:20:51.670Z,22.20
2023-03-25T12:23:42.197Z,25.90
2023-03-25T12:26:11.557Z,29.10
2023-03-25T12:28:39.618Z,28.70
2023-03-25T12:31:20.781Z,29.30
2023-03-25T12:34:08.202Z,25.70
2023-03-25T12:36:44.428Z,24.90
2023-03-25T12:39:43.177Z,26.10
2023-03-25T12:42:22.050Z,25.20
2023-03-25T12:45:18.885Z,29.40
2023-03-25T12:47:49.999Z,32.60
2023-03-25T12:50:26.919Z,30.30
2023-03-25T12:53:20.505Z,26.30
2023-03-25T12:56:23.567Z,27.30
2023-03-25T12:59:12.344Z,29.90
2023-03-25T13:02:15.140Z,31.40
2023-03-25T13:05:03.061Z,26.90
2023-03-25T13:07:41.250Z,27.30
2023-03-25T13:10:21.366Z,29.90
2023-03-25T13:12:54.650Z,25.30
2023-03-25T13:15:28.666Z,28.20
2023-03-25T13:18:14.203Z,28.70
2023-03-25T13:20:46.719Z,34.70
2023-03-25T13:23:18.032Z,28.70
2023-03-25T13:26:06.641Z,27.40
2023-03-25T13:29:00.236Z,28.40
2023-03-25T13:31:42.910Z,26.40
2023-03-25T13:34:11.349Z,26.00
2023-03-25T13:36:44.317Z,27.60
2023-03-25T13:39:25.505Z,36.40
2023-03-25T13:42:07.006Z,28.40
2023-03-25T13:44:39.766Z,29.40
2023-03-25T13:47:29.541Z,28.10
2023-03-25T13:50:00.461Z,25.90
2023-03-25T13:52:32.070Z,26.50
2023-03-25T13:55:04.645Z,24.00
2023-03-25T13:57:51.913Z,24.20
2023-03-25T14:00:45.031Z,31.70
2023-03-25T14:03:26.845Z,24.10
2023-03-25T14:06:50.143Z,23.40
2023-03-25T14:09:48.523Z,23.00
2023-03-25T14:12:26.484Z,23.50
2023-03-25T14:15:05.412Z,24.60
2023-03-25T14:17:35.857Z,25.00
2023-03-25T14:20:05.918Z,29.60
2023-03-25T14:22:43.810Z,26.70
2023-03-25T14:25:21.849Z,28.00
2023-03-25T14:27:50.694Z,30.80
2023-03-25T14:30:22.360Z,28.70
2023-03-25T14:32:52.135Z,26.10
2023-03-25T14:35:33.364Z,28.20
2023-03-25T14:38:08.465Z,27.40
2023-03-25T14:41:01.264Z,27.10
2023-03-25T14:43:48.326Z,33.50
2023-03-25T14:46:20.724Z,38.10
2023-03-25T14:48:52.622Z,28.10
2023-03-25T14:51:23.097Z,29.10
2023-03-25T14:54:02.761Z,33.80
2023-03-25T14:56:39.476Z,33.00
2023-03-25T14:59:14.455Z,32.40
2023-03-25T15:01:43.782Z,33.80
2023-03-25T15:04:18.225Z,35.80
2023-03-25T15:06:52.185Z,38.20
2023-03-25T15:09:20.866Z,33.70
2023-03-25T15:12:00.403Z,36.00
2023-03-25T15:14:36.044Z,56.40
2023-03-25T15:17:06.651Z,37.80
2023-03-25T15:20:10.812Z,42.20
2023-03-25T15:22:40.723Z,37.70
2023-03-25T15:25:17.013Z,54.70
2023-03-25T15:28:04.641Z,54.40
2023-03-25T15:31:16.469Z,44.80
2023-03-25T15:34:05.192Z,48.50
2023-03-25T15:36:48.824Z,39.30
2023-03-25T15:39:38.544Z,40.00
2023-03-25T15:42:13.200Z,45.00
2023-03-25T15:45:01.470Z,51.60
2023-03-25T15:47:37.894Z,39.90
2023-03-25T15:50:12.073Z,31.40
2023-03-25T15:53:09.015Z,29.40
2023-03-25T15:55:40.665Z,26.10
2023-03-25T15:58:14.692Z,30.10
2023-03-25T16:00:47.305Z,35.70
2023-03-25T16:04:18.760Z,41.50
2023-03-25T16:06:48.981Z,34.10
2023-03-25T16:09:28.824Z,29.80
2023-03-25T16:12:01.229Z,42.20
2023-03-25T16:14:31.403Z,32.80
2023-03-25T16:17:06.789Z,29.60
2023-03-25T16:19:50.711Z,30.50
2023-03-25T16:22:33.073Z,28.50
2023-03-25T16:25:03.948Z,29.30
2023-03-25T16:27:37.126Z,39.20
2023-03-25T16:30:20.351Z,28.50
2023-03-25T16:32:48.930Z,33.70
2023-03-25T16:35:24.840Z,36.40
2023-03-25T16:37:57.339Z,34.20
2023-03-25T16:40:30.845Z,31.60
2023-03-25T16:53:20.410Z,34.10
2023-03-25T16:55:50.984Z,35.90
2023-03-25T16:58:22.279Z,34.20
2023-03-25T17:00:53.900Z,34.90
2023-03-25T17:03:47.346Z,31.50
2023-03-25T17:06:28.632Z,29.40
2023-03-25T17:08:59.050Z,30.00
2023-03-25T17:11:31.559Z,34.10
2023-03-25T17:14:08.728Z,31.90
2023-03-25T17:16:38.340Z,32.40
2023-03-25T17:19:08.157Z,31.60
2023-03-25T17:21:38.743Z,34.00
2023-03-25T17:24:24.095Z,31.70
2023-03-25T17:27:07.494Z,34.70
2023-03-25T17:29:49.809Z,33.70
2023-03-25T17:32:18.499Z,35.80
2023-03-25T17:34:59.129Z,33.70
2023-03-25T17:37:27.710Z,42.30
2023-03-25T17:39:57.384Z,43.50
2023-03-25T17:42:26.372Z,47.30
2023-03-25T17:44:54.493Z,59.40
2023-03-25T17:47:24.150Z,62.60
2023-03-25T17:49:52.994Z,56.60
2023-03-25T17:52:21.175Z,55.30
2023-03-25T17:54:49.755Z,41.90
2023-03-25T17:57:18.459Z,38.30
2023-03-25T17:59:47.334Z,32.50
2023-03-25T18:02:16.647Z,34.70
2023-03-25T18:04:45.022Z,35.20
2023-03-25T18:07:13.430Z,42.90
2023-03-25T18:09:43.165Z,45.30
2023-03-25T18:12:14.836Z,41.20
2023-03-25T18:14:45.128Z,35.60
2023-03-25T18:17:13.378Z,40.30
2023-03-25T18:19:47.722Z,39.50
2023-03-25T18:22:20.176Z,39.10
2023-03-25T18:24:48.947Z,36.60
2023-03-25T18:27:27.785Z,37.00
2023-03-25T18:30:13.261Z,37.10
2023-03-25T18:32:41.656Z,37.00
2023-03-25T18:35:10.565Z,36.10
2023-03-25T18:37:39.443Z,37.00
2023-03-25T18:40:36.180Z,37.30
2023-03-25T18:43:04.592Z,41.10
2023-03-25T18:45:33.248Z,39.50
2023-03-25T18:48:02.765Z,44.00
2023-03-25T18:50:38.767Z,41.10
2023-03-25T18:53:09.953Z,43.80
2023-03-25T18:55:38.461Z,41.10
2023-03-25T18:58:08.015Z,41.10
2023-03-25T19:00:39.896Z,44.00
2023-03-25T19:03:08.497Z,41.80
2023-03-25T19:05:36.987Z,39.60
2023-03-25T19:08:07.405Z,42.40
2023-03-25T19:10:36.193Z,42.20
2023-03-25T19:13:08.688Z,39.80
2023-03-25T19:15:38.632Z,45.20
2023-03-25T19:24:44.178Z,43.80
2023-03-25T19:27:12.374Z,42.50
2023-03-25T19:29:39.822Z,49.90
2023-03-25T19:32:06.998Z,52.80
2023-03-25T19:34:45.887Z,55.30
2023-03-25T19:37:13.447Z,51.10
2023-03-25T19:39:42.140Z,46.20
2023-03-25T19:42:09.360Z,47.00
2023-03-25T19:44:36.646Z,50.60
2023-03-25T19:47:09.222Z,54.30
2023-03-25T19:49:40.124Z,59.80
2023-03-25T19:52:07.424Z,55.70
2023-03-25T19:54:35.394Z,59.80
2023-03-25T19:57:02.376Z,54.20
2023-03-25T19:59:36.594Z,49.80
2023-03-25T20:02:03.804Z,53.90
2023-03-25T20:04:31.370Z,49.20
2023-03-25T20:07:03.846Z,52.20
2023-03-25T20:09:32.024Z,53.20
2023-03-25T20:11:58.862Z,59.70
2023-03-25T20:14:29.699Z,58.40
2023-03-25T20:16:57.511Z,56.70
2023-03-25T20:19:24.930Z,52.80
2023-03-25T20:21:52.350Z,58.90
2023-03-25T20:24:19.555Z,66.60
2023-03-25T20:26:46.500Z,65.20
2023-03-25T20:29:17.125Z,68.10
2023-03-25T20:31:45.319Z,69.60
2023-03-25T20:34:13.166Z,67.90
2023-03-25T20:36:41.248Z,62.20
2023-03-25T20:39:08.085Z,61.90
2023-03-25T20:41:37.392Z,65.50
2023-03-25T20:44:06.389Z,65.80
2023-03-25T20:46:34.615Z,66.90
2023-03-25T20:49:02.837Z,66.30
2023-03-25T20:51:31.935Z,64.30
2023-03-25T20:53:59.132Z,69.00
2023-03-25T20:56:26.034Z,71.80
2023-03-25T20:58:55.034Z,69.60
2023-03-25T21:01:22.962Z,69.60
2023-03-25T21:03:51.370Z,62.60
2023-03-25T21:06:23.727Z,68.10
2023-03-25T21:08:54.282Z,72.90
2023-03-25T21:11:21.433Z,69.30
2023-03-25T21:13:51.043Z,62.70
2023-03-25T21:16:17.959Z,58.00
2023-03-25T21:18:45.544Z,58.10
2023-03-25T21:21:12.192Z,65.00
2023-03-25T21:23:42.489Z,59.10
2023-03-25T21:26:10.240Z,55.20
2023-03-25T21:28:37.733Z,61.60
2023-03-25T21:31:07.195Z,56.80
2023-03-25T21:33:37.684Z,57.70
2023-03-25T21:36:06.607Z,53.40
2023-03-25T21:38:36.891Z,53.80
2023-03-25T21:41:05.209Z,53.60
2023-03-25T21:43:33.242Z,46.90
2023-03-25T21:46:05.499Z,48.40
2023-03-25T21:48:33.303Z,42.70
2023-03-25T21:51:01.042Z,40.30
2023-03-25T21:53:31.640Z,42.70
2023-03-25T21:56:03.754Z,40.60
2023-03-25T21:58:31.927Z,41.20
2023-03-25T22:00:59.923Z,40.70
2023-03-25T22:03:29.597Z,42.00
2023-03-25T22:06:02.031Z,47.80
2023-03-25T22:08:29.016Z,42.50
2023-03-25T22:11:05.832Z,40.50
2023-03-25T22:13:32.859Z,43.50
2023-03-25T22:15:59.906Z,41.60
2023-03-25T22:18:28.567Z,46.10
2023-03-25T22:21:15.116Z,57.80
2023-03-25T22:23:45.048Z,50.40
2023-03-25T22:26:12.748Z,53.60
2023-03-25T22:28:42.036Z,57.70
2023-03-25T22:31:10.076Z,49.60
2023-03-25T22:33:37.727Z,51.70
2023-03-25T22:36:11.214Z,51.00
2023-03-25T22:38:44.093Z,49.30
2023-03-25T22:41:13.389Z,48.90
2023-03-25T22:43:41.224Z,47.00
2023-03-25T22:46:08.566Z,45.00
2023-03-25T22:48:40.490Z,45.40
2023-03-25T22:51:11.719Z,49.70
2023-03-25T22:53:38.999Z,43.80
2023-03-25T22:56:07.054Z,50.80
2023-03-25T22:58:34.323Z,46.70
2023-03-25T23:01:05.419Z,45.60
2023-03-25T23:03:32.857Z,39.00
2023-03-25T23:06:02.447Z,40.20
2023-03-25T23:08:34.583Z,39.10
2023-03-25T23:11:07.079Z,36.20
2023-03-25T23:13:34.217Z,36.10
2023-03-25T23:16:04.048Z,35.10
2023-03-25T23:18:33.048Z,33.20
2023-03-25T23:21:00.900Z,32.20
2023-03-25T23:23:28.456Z,32.50
2023-03-25T23:26:05.535Z,31.30
2023-03-25T23:28:36.687Z,27.20
2023-03-25T23:31:09.039Z,28.50
2023-03-25T23:33:36.011Z,29.20
2023-03-25T23:36:04.837Z,27.20
2023-03-25T23:38:32.062Z,27.00
2023-03-25T23:41:08.120Z,24.70
2023-03-25T23:43:35.880Z,28.60
2023-03-25T23:46:04.460Z,25.60
2023-03-25T23:48:33.156Z,30.10
2023-03-25T23:50:59.838Z,28.00
2023-03-25T23:53:27.609Z,28.40
2023-03-25T23:55:55.339Z,24.50
2023-03-25T23:58:25.405Z,27.60
